Time;durP1;ratioP1;P1;durP2;ratioP2;P2;SDS_P1;SDS_P2;PMS_P1;PMS_P2;Temp;Humidity;BMP_temperature;BMP_pressure;BME280_temperature;BME280_humidity;BME280_pressure;Samples;Min_cycle;Max_cycle;Signal;HPM_P1;HPM_P2
2023/11/11 00:01:05;;;;;;;4.30;0.50;;;;;;;7.78;100.00;100874.42;105313;1253;62160;-53
2023/11/11 00:03:34;;;;;;;0.70;0.50;;;;;;;7.77;100.00;100871.56;105243;1253;60332;-53
2023/11/11 00:06:03;;;;;;;1.00;0.60;;;;;;;7.76;100.00;100868.36;106285;1253;74192;-53
2023/11/11 00:08:34;;;;;;;0.80;0.50;;;;;;;7.76;100.00;100866.04;106616;1254;65658;-53
2023/11/11 00:11:03;;;;;;;3.10;0.60;;;;;;;7.76;100.00;100864.62;108976;1253;71452;-54
2023/11/11 00:13:30;;;;;;;1.60;0.40;;;;;;;7.76;100.00;100862.30;108838;1253;60072;-54
2023/11/11 00:15:59;;;;;;;1.40;0.60;;;;;;;7.75;100.00;100858.38;105600;1258;60480;-53
2023/11/11 00:18:26;;;;;;;1.40;0.50;;;;;;;7.74;100.00;100855.75;105345;1254;73929;-54
2023/11/11 00:20:55;;;;;;;0.80;0.60;;;;;;;7.72;100.00;100848.98;105295;1253;66851;-51
2023/11/11 00:23:23;;;;;;;0.60;0.50;;;;;;;7.70;100.00;100843.13;105287;1255;71494;-52
2023/11/11 00:25:50;;;;;;;1.00;0.60;;;;;;;7.67;100.00;100837.10;105354;1253;61741;-53
2023/11/11 00:28:18;;;;;;;0.90;0.50;;;;;;;7.65;100.00;100830.73;105280;1253;60748;-54
2023/11/11 00:30:46;;;;;;;1.20;0.50;;;;;;;7.64;100.00;100820.39;105289;1257;73943;-53
2023/11/11 00:33:13;;;;;;;0.50;0.40;;;;;;;7.64;100.00;100815.55;105302;1253;65981;-54
2023/11/11 00:35:41;;;;;;;0.70;0.50;;;;;;;7.63;100.00;100812.17;105318;1253;73877;-53
2023/11/11 00:38:10;;;;;;;1.80;0.60;;;;;;;7.61;100.00;100800.41;105328;1259;60576;-52
2023/11/11 00:40:40;;;;;;;1.60;0.50;;;;;;;7.60;100.00;100799.90;108939;1253;59703;-54
2023/11/11 00:43:08;;;;;;;0.70;0.60;;;;;;;7.58;100.00;100793.14;109055;1253;72889;-54
2023/11/11 00:45:36;;;;;;;0.90;0.90;;;;;;;7.57;100.00;100788.02;108753;1253;67100;-54
2023/11/11 00:48:04;;;;;;;0.80;0.60;;;;;;;7.55;100.00;100779.29;108900;1253;72734;-54
2023/11/11 00:50:32;;;;;;;1.30;0.60;;;;;;;7.54;100.00;100771.63;108980;1253;59654;-54
2023/11/11 00:53:01;;;;;;;0.70;0.50;;;;;;;7.52;100.00;100767.36;108647;1258;59516;-55
2023/11/11 00:55:28;;;;;;;1.00;0.60;;;;;;;7.52;100.00;100758.80;108954;1253;72947;-54
2023/11/11 00:57:56;;;;;;;2.60;0.50;;;;;;;7.52;100.00;100755.05;108967;1258;65843;-55
2023/11/11 01:00:25;;;;;;;0.70;0.50;;;;;;;7.53;100.00;100746.82;108991;1254;70133;-54
2023/11/11 01:02:54;;;;;;;0.80;0.60;;;;;;;7.53;100.00;100749.32;108962;1253;61524;-54
2023/11/11 01:05:23;;;;;;;1.00;0.60;;;;;;;7.54;100.00;100740.91;108839;1258;60095;-55
2023/11/11 01:07:51;;;;;;;1.60;0.70;;;;;;;7.53;100.00;100736.27;108870;1257;72666;-54
2023/11/11 01:10:22;;;;;;;0.80;0.60;;;;;;;7.54;100.00;100732.34;108968;1253;66251;-54
2023/11/11 01:12:54;;;;;;;1.10;0.50;;;;;;;7.53;100.00;100733.77;108917;1253;71485;-54
2023/11/11 01:15:21;;;;;;;0.90;0.60;;;;;;;7.53;100.00;100729.31;108969;1253;60322;-54
2023/11/11 01:17:49;;;;;;;1.20;0.60;;;;;;;7.52;100.00;100713.07;108787;1253;59055;-54
2023/11/11 01:20:17;;;;;;;0.70;0.60;;;;;;;7.51;100.00;100715.59;108805;1253;74503;-54
2023/11/11 01:22:44;;;;;;;3.00;0.60;;;;;;;7.51;100.00;100715.41;107038;1253;64819;-53
2023/11/11 01:25:12;;;;;;;1.70;0.50;;;;;;;7.51;100.00;100709.52;105200;1253;71389;-53
2023/11/11 01:27:39;;;;;;;3.70;0.50;;;;;;;7.51;100.00;100706.66;105472;1259;60493;-53
2023/11/11 01:30:08;;;;;;;1.20;0.60;;;;;;;7.52;100.00;100703.08;105380;1259;60373;-54
2023/11/11 01:32:35;;;;;;;0.60;0.60;;;;;;;7.52;100.00;100701.28;108902;1253;73924;-55
2023/11/11 01:35:03;;;;;;;1.10;0.60;;;;;;;7.52;100.00;100690.20;108998;1254;67517;-55
2023/11/11 01:37:30;;;;;;;1.20;0.50;;;;;;;7.51;100.00;100679.52;108813;1253;74910;-53
2023/11/11 01:39:58;;;;;;;1.20;0.80;;;;;;;7.50;100.00;100675.08;108725;1253;58898;-52
2023/11/11 01:42:25;;;;;;;1.40;0.60;;;;;;;7.48;100.00;100671.20;108901;1253;60086;-52
2023/11/11 01:44:54;;;;;;;0.60;0.40;;;;;;;7.46;100.00;100666.23;106866;1253;74344;-53
2023/11/11 01:47:22;;;;;;;0.70;0.50;;;;;;;7.44;100.00;100661.98;105580;1258;66832;-54
2023/11/11 01:49:49;;;;;;;0.80;0.60;;;;;;;7.44;100.00;100663.05;105312;1254;71895;-53
2023/11/11 01:52:17;;;;;;;1.00;0.60;;;;;;;7.44;100.00;100655.55;105322;1256;60576;-55
2023/11/11 01:54:44;;;;;;;1.10;0.70;;;;;;;7.45;100.00;100650.17;105311;1257;60393;-52
2023/11/11 01:57:12;;;;;;;0.90;0.60;;;;;;;7.46;100.00;100646.95;105241;1253;72668;-53
2023/11/11 01:59:39;;;;;;;0.90;0.60;;;;;;;7.47;100.00;100644.78;105272;1253;66080;-54
2023/11/11 02:02:07;;;;;;;1.00;0.70;;;;;;;7.47;100.00;100635.52;105202;1258;73020;-53
2023/11/11 02:04:35;;;;;;;3.00;0.60;;;;;;;7.47;100.00;100636.05;105590;1254;60582;-53
2023/11/11 02:07:05;;;;;;;1.10;0.70;;;;;;;7.46;100.00;100625.16;107516;1258;58943;-54
2023/11/11 02:09:33;;;;;;;1.20;0.80;;;;;;;7.46;100.00;100621.42;106990;1253;73290;-54
2023/11/11 02:12:00;;;;;;;2.40;0.80;;;;;;;7.45;100.00;100618.23;105934;1255;66304;-53
2023/11/11 02:14:28;;;;;;;1.60;0.80;;;;;;;7.45;100.00;100616.44;105396;1258;70881;-52
2023/11/11 02:16:57;;;;;;;1.70;0.80;;;;;;;7.46;100.00;100607.84;106369;1254;60636;-51
2023/11/11 02:19:27;;;;;;;0.90;0.70;;;;;;;7.48;100.00;100605.31;105950;1256;60406;-53
2023/11/11 02:21:55;;;;;;;1.60;0.60;;;;;;;7.50;100.00;100606.84;105346;1254;73907;-53
2023/11/11 02:24:22;;;;;;;1.50;0.70;;;;;;;7.52;100.00;100601.45;105322;1255;66001;-54
2023/11/11 02:26:50;;;;;;;0.80;0.60;;;;;;;7.52;100.00;100608.05;107549;1254;71468;-54
2023/11/11 02:29:17;;;;;;;1.70;0.60;;;;;;;7.52;100.00;100603.22;105220;1259;62080;-53
2023/11/11 02:31:44;;;;;;;1.80;0.60;;;;;;;7.52;100.00;100594.11;105359;1253;60820;-53
2023/11/11 02:34:12;;;;;;;2.50;0.70;;;;;;;7.53;100.00;100589.64;105391;1253;73506;-53
2023/11/11 02:36:39;;;;;;;1.00;0.70;;;;;;;7.54;100.00;100587.11;105166;1254;67000;-52
2023/11/11 02:39:23;;;;;;;0.60;0.60;;;;;;;7.57;100.00;100602.60;106289;1255;72295;-53
2023/11/11 02:41:52;;;;;;;1.60;0.60;;;;;;;7.59;100.00;100597.72;105332;1262;60474;-53
2023/11/11 02:46:37;;;;;;;0.50;0.50;;;;;;;7.61;100.00;100688.40;102270;1291;601272;-53
2023/11/11 02:49:04;;;;;;;0.90;0.60;;;;;;;7.65;100.00;100739.63;105143;1269;60090;-55
2023/11/11 02:51:32;;;;;;;0.60;0.60;;;;;;;7.66;100.00;100709.20;104550;1266;60065;-53
2023/11/11 02:53:59;;;;;;;0.90;0.70;;;;;;;7.67;100.00;100689.54;104468;1271;71038;-53
2023/11/11 02:56:26;;;;;;;2.20;0.80;;;;;;;7.68;100.00;100681.30;104566;1272;66138;-53
2023/11/11 02:58:54;;;;;;;3.50;0.70;;;;;;;7.69;100.00;100667.52;104347;1271;72652;-53
2023/11/11 03:01:21;;;;;;;2.90;0.70;;;;;;;7.71;100.00;100661.41;102321;1263;3365564;-53
2023/11/11 03:03:49;;;;;;;0.90;0.60;;;;;;;7.72;100.00;100656.04;107157;1265;60042;-52
2023/11/11 03:06:17;;;;;;;1.00;0.60;;;;;;;7.74;100.00;100645.80;104894;1263;72684;-53
2023/11/11 03:08:45;;;;;;;0.90;0.60;;;;;;;7.77;100.00;100643.57;104839;1268;66128;-51
2023/11/11 03:11:12;;;;;;;0.90;0.70;;;;;;;7.80;100.00;100640.66;104782;1263;72773;-51
2023/11/11 03:13:40;;;;;;;0.90;0.70;;;;;;;7.82;100.00;100638.64;104895;1263;59728;-53
2023/11/11 03:16:07;;;;;;;1.10;0.70;;;;;;;7.83;100.00;100633.06;104598;1263;59501;-52
2023/11/11 03:18:35;;;;;;;1.20;0.70;;;;;;;7.86;100.00;100632.11;104758;1263;73038;-54
2023/11/11 03:21:03;;;;;;;0.90;0.70;;;;;;;7.87;100.00;100635.48;104585;1260;66394;-52
2023/11/11 03:23:30;;;;;;;1.70;0.70;;;;;;;7.88;100.00;100628.49;104642;1268;71433;-53
2023/11/11 03:25:58;;;;;;;3.50;0.70;;;;;;;7.89;100.00;100627.58;104817;1268;61722;-53
2023/11/11 03:28:25;;;;;;;2.20;0.60;;;;;;;7.91;100.00;100624.13;104722;1263;60012;-52
2023/11/11 03:30:53;;;;;;;0.90;0.70;;;;;;;7.93;100.00;100621.56;104662;1268;73599;-52
2023/11/11 03:33:20;;;;;;;2.30;0.60;;;;;;;7.95;100.00;100614.91;104773;1263;65791;-55
2023/11/11 03:35:50;;;;;;;2.60;0.50;;;;;;;7.98;100.00;100615.58;107727;1264;72717;-54
2023/11/11 03:38:18;;;;;;;0.80;0.50;;;;;;;8.00;100.00;100610.32;104876;1268;60819;-52
2023/11/11 03:40:46;;;;;;;2.00;0.60;;;;;;;8.02;100.00;100605.81;104678;1266;60872;-53
2023/11/11 03:43:13;;;;;;;1.30;0.80;;;;;;;8.04;100.00;100602.02;104605;1263;73918;-54
2023/11/11 03:45:40;;;;;;;1.10;0.70;;;;;;;8.05;100.00;100605.40;104814;1264;65741;-51
2023/11/11 03:48:08;;;;;;;2.00;1.00;;;;;;;8.05;100.00;100594.13;104805;1263;71491;-54
2023/11/11 03:50:35;;;;;;;0.90;0.70;;;;;;;8.04;100.00;100591.64;104656;1263;60648;-52
2023/11/11 03:53:03;;;;;;;1.20;0.80;;;;;;;8.04;100.00;100587.17;108385;1262;58772;-53
2023/11/11 03:55:31;;;;;;;0.80;0.70;;;;;;;8.04;100.00;100584.84;108444;1263;71871;-52
2023/11/11 03:57:59;;;;;;;0.80;0.60;;;;;;;8.05;100.00;100581.27;108377;1263;67214;-53
2023/11/11 04:00:26;;;;;;;0.80;0.70;;;;;;;8.06;100.00;100575.34;108330;1262;72781;-55
2023/11/11 04:02:54;;;;;;;1.00;0.60;;;;;;;8.06;100.00;100571.40;108442;1262;62175;-53
2023/11/11 04:05:22;;;;;;;1.10;0.70;;;;;;;8.08;100.00;100567.25;108253;1262;60866;-52
2023/11/11 04:07:49;;;;;;;0.80;0.60;;;;;;;8.10;100.00;100566.66;108421;1262;72991;-54
2023/11/11 04:10:17;;;;;;;1.00;0.70;;;;;;;8.11;100.00;100565.37;108247;1261;65788;-53
2023/11/11 04:12:45;;;;;;;1.20;0.70;;;;;;;8.13;100.00;100564.60;105494;1268;72708;-55
2023/11/11 04:15:14;;;;;;;0.80;0.70;;;;;;;8.14;100.00;100561.55;108449;1263;60072;-53
2023/11/11 04:17:45;;;;;;;1.00;0.50;;;;;;;8.15;100.00;100563.50;108283;1262;59001;-53
2023/11/11 04:20:12;;;;;;;1.10;0.60;;;;;;;8.14;100.00;100557.42;108370;1262;72847;-55
2023/11/11 04:22:40;;;;;;;0.60;0.50;;;;;;;8.14;100.00;100554.92;108374;1266;66258;-54
2023/11/11 04:25:08;;;;;;;0.70;0.60;;;;;;;8.15;100.00;100546.52;108381;1261;72674;-54
2023/11/11 04:27:36;;;;;;;1.50;0.50;;;;;;;8.15;100.00;100543.65;108321;1264;61001;-53
2023/11/11 04:30:06;;;;;;;3.00;0.50;;;;;;;8.16;100.00;100540.77;107948;1267;60127;-54
2023/11/11 04:32:34;;;;;;;1.60;0.60;;;;;;;8.17;100.00;100545.36;106781;1267;73153;-53
2023/11/11 04:35:02;;;;;;;0.80;0.50;;;;;;;8.18;100.00;100537.10;108310;1267;68890;-54
2023/11/11 04:37:32;;;;;;;0.90;0.80;;;;;;;8.19;100.00;100532.27;105114;1268;73477;-54
2023/11/11 04:40:00;;;;;;;1.00;0.60;;;;;;;8.21;100.00;100534.90;104761;1266;59647;-54
2023/11/11 04:42:27;;;;;;;0.70;0.60;;;;;;;8.22;100.00;100535.95;104715;1269;60221;-53
2023/11/11 04:44:56;;;;;;;2.00;0.60;;;;;;;8.20;100.00;100533.66;104596;1268;72850;-55
2023/11/11 04:47:24;;;;;;;0.70;0.60;;;;;;;8.19;100.00;100534.56;104721;1264;66935;-52
2023/11/11 04:49:51;;;;;;;0.90;0.60;;;;;;;8.19;100.00;100531.73;104766;1267;71502;-52
2023/11/11 04:52:19;;;;;;;0.60;0.60;;;;;;;8.17;100.00;100536.59;104841;1267;60639;-54
2023/11/11 04:54:48;;;;;;;2.20;0.50;;;;;;;8.17;100.00;100540.35;105315;1254;60043;-54
2023/11/11 04:57:17;;;;;;;0.70;0.60;;;;;;;8.18;100.00;100541.77;108345;1258;71862;-52
2023/11/11 04:59:44;;;;;;;2.50;0.70;;;;;;;8.18;100.00;100543.36;105204;1258;65546;-49
2023/11/11 05:02:11;;;;;;;2.90;0.70;;;;;;;8.20;100.00;100540.11;105125;1258;72524;-53
2023/11/11 05:04:41;;;;;;;0.80;0.70;;;;;;;8.21;100.00;100546.16;106893;1256;59734;-52
2023/11/11 05:07:09;;;;;;;1.60;0.70;;;;;;;8.22;100.00;100540.41;105189;1256;59711;-52
2023/11/11 05:09:37;;;;;;;1.10;0.70;;;;;;;8.20;100.00;100539.21;105213;1256;73127;-51
2023/11/11 05:12:05;;;;;;;1.00;0.70;;;;;;;8.18;100.00;100536.77;107473;1256;65771;-53
2023/11/11 05:14:33;;;;;;;0.90;0.70;;;;;;;8.15;100.00;100537.02;105290;1264;72763;-53
2023/11/11 05:17:07;;;;;;;1.50;0.80;;;;;;;8.14;100.00;100527.77;105301;1259;62633;-53
2023/11/11 05:19:34;;;;;;;0.80;0.70;;;;;;;8.13;100.00;100531.00;105406;1258;60082;-52
2023/11/11 05:22:02;;;;;;;2.70;0.70;;;;;;;8.13;100.00;100522.07;105364;1260;71822;-51
2023/11/11 05:24:30;;;;;;;1.10;0.70;;;;;;;8.13;100.00;100517.94;105332;1265;65701;-52
2023/11/11 05:26:58;;;;;;;1.00;0.50;;;;;;;8.14;100.00;100512.56;105678;1258;71483;-54
2023/11/11 05:29:25;;;;;;;0.70;0.50;;;;;;;8.15;100.00;100509.31;105369;1259;59752;-54
2023/11/11 05:31:52;;;;;;;2.60;0.60;;;;;;;8.16;100.00;100508.04;105274;1259;59977;-55
2023/11/11 05:34:20;;;;;;;1.00;0.70;;;;;;;8.16;100.00;100508.23;105457;1260;71070;-53
2023/11/11 05:36:47;;;;;;;0.80;0.50;;;;;;;8.15;100.00;100511.45;105431;1260;68761;-52
2023/11/11 05:39:15;;;;;;;0.60;0.50;;;;;;;8.14;100.00;100503.97;104953;1258;71199;-51
2023/11/11 05:41:43;;;;;;;1.10;0.90;;;;;;;8.14;100.00;100501.66;104772;1258;60481;-52
2023/11/11 05:44:10;;;;;;;0.70;0.50;;;;;;;8.14;100.00;100505.95;104759;1262;59570;-50
2023/11/11 05:46:39;;;;;;;0.90;0.50;;;;;;;8.16;100.00;100500.55;104732;1260;72510;-53
2023/11/11 05:49:07;;;;;;;1.00;0.50;;;;;;;8.17;100.00;100495.67;105363;1258;66974;-52
2023/11/11 05:51:35;;;;;;;1.20;0.60;;;;;;;8.19;100.00;100493.11;105016;1267;71594;-52
2023/11/11 05:54:02;;;;;;;3.30;0.60;;;;;;;8.20;100.00;100484.85;105261;1259;59705;-55
2023/11/11 05:56:30;;;;;;;0.70;0.60;;;;;;;8.23;100.00;100482.30;105202;1258;60851;-54
2023/11/11 05:58:59;;;;;;;1.10;0.60;;;;;;;8.24;100.00;100476.54;105145;1254;73456;-55
2023/11/11 06:01:26;;;;;;;1.20;0.90;;;;;;;8.23;100.00;100477.98;106522;1258;67302;-54
2023/11/11 06:03:54;;;;;;;0.80;0.60;;;;;;;8.22;100.00;100472.29;105090;1258;70495;-54
2023/11/11 06:06:22;;;;;;;1.80;0.70;;;;;;;8.22;100.00;100469.80;105073;1256;60604;-54
2023/11/11 06:08:49;;;;;;;0.70;0.70;;;;;;;8.22;100.00;100458.17;105004;1254;61130;-54
2023/11/11 06:11:17;;;;;;;1.30;0.60;;;;;;;8.23;100.00;100458.33;104702;1260;71838;-52
2023/11/11 06:13:44;;;;;;;0.90;0.60;;;;;;;8.24;100.00;100451.52;105168;1258;65648;-54
2023/11/11 06:16:12;;;;;;;1.60;0.90;;;;;;;8.25;100.00;100445.94;104909;1257;71971;-53
2023/11/11 06:18:39;;;;;;;1.10;0.80;;;;;;;8.26;100.00;100444.98;104631;1257;59718;-50
2023/11/11 06:21:08;;;;;;;2.10;0.70;;;;;;;8.27;100.00;100442.99;104802;1260;59996;-50
2023/11/11 06:23:37;;;;;;;1.00;0.80;;;;;;;8.28;100.00;100439.92;108793;1254;73724;-52
2023/11/11 06:26:07;;;;;;;2.30;1.20;;;;;;;8.29;100.00;100443.30;108367;1260;65526;-54
2023/11/11 06:28:35;;;;;;;1.20;0.70;;;;;;;8.29;100.00;100434.54;105243;1261;72804;-53
2023/11/11 06:31:02;;;;;;;1.50;1.00;;;;;;;8.29;100.00;100429.71;105308;1257;61114;-52
2023/11/11 06:33:30;;;;;;;2.70;1.00;;;;;;;8.30;100.00;100427.38;105121;1268;59652;-49
2023/11/11 06:35:59;;;;;;;1.10;0.70;;;;;;;8.31;100.00;100430.22;108944;1255;71809;-54
2023/11/11 06:38:28;;;;;;;0.80;0.70;;;;;;;8.33;100.00;100431.23;108775;1253;67757;-54
2023/11/11 06:40:55;;;;;;;1.00;0.70;;;;;;;8.37;100.00;100432.02;109026;1253;72103;-55
2023/11/11 06:43:22;;;;;;;1.50;0.80;;;;;;;8.41;100.00;100430.67;108800;1258;61182;-55
2023/11/11 06:45:51;;;;;;;1.00;0.80;;;;;;;8.45;100.00;100433.59;108802;1254;59454;-54
2023/11/11 06:48:19;;;;;;;0.90;0.70;;;;;;;8.47;100.00;100433.88;109107;1253;73642;-53
2023/11/11 06:50:46;;;;;;;2.20;0.90;;;;;;;8.49;100.00;100431.16;108891;1260;67545;-54
2023/11/11 06:53:14;;;;;;;1.10;0.70;;;;;;;8.50;100.00;100428.08;108902;1256;70978;-54
2023/11/11 06:55:41;;;;;;;0.90;0.60;;;;;;;8.52;100.00;100431.59;108925;1254;60486;-55
2023/11/11 06:58:08;;;;;;;1.00;0.70;;;;;;;8.52;100.00;100428.35;108923;1258;59841;-55
2023/11/11 07:00:36;;;;;;;1.30;0.70;;;;;;;8.54;100.00;100429.04;108893;1254;73840;-55
2023/11/11 07:03:03;;;;;;;1.40;0.70;;;;;;;8.55;100.00;100427.38;108876;1254;67549;-53
2023/11/11 07:05:31;;;;;;;2.30;0.90;;;;;;;8.58;100.00;100427.13;108769;1259;71795;-55
2023/11/11 07:07:58;;;;;;;1.50;0.80;;;;;;;8.60;100.00;100426.67;108922;1257;62149;-55
2023/11/11 07:10:28;;;;;;;1.00;0.60;;;;;;;8.64;100.00;100423.71;108834;1255;60028;-53
2023/11/11 07:12:56;;;;;;;2.00;0.70;;;;;;;8.68;100.00;100425.74;108803;1258;71659;-54
2023/11/11 07:15:24;;;;;;;0.90;0.70;;;;;;;8.71;100.00;100425.11;109037;1254;66892;-54
2023/11/11 07:17:51;;;;;;;3.70;0.90;;;;;;;8.73;100.00;100427.74;108784;1257;72042;-54
2023/11/11 07:20:21;;;;;;;1.00;0.70;;;;;;;8.75;100.00;100422.16;108863;1257;61740;-55
2023/11/11 07:22:49;;;;;;;1.30;1.10;;;;;;;8.74;100.00;100423.44;108888;1254;59175;-55
2023/11/11 07:25:16;;;;;;;1.90;0.70;;;;;;;8.71;100.00;100417.78;108951;1258;74023;-54
2023/11/11 07:27:44;;;;;;;2.60;0.90;;;;;;;8.69;100.00;100413.89;108470;1259;67127;-57
2023/11/11 07:30:12;;;;;;;2.20;1.00;;;;;;;8.67;100.00;100409.51;105068;1254;71697;-54
2023/11/11 07:32:40;;;;;;;2.20;1.60;;;;;;;8.66;100.00;100407.04;106413;1257;61154;-54
2023/11/11 07:35:26;;;;;;;1.90;1.00;;;;;;;8.65;100.00;100409.74;105075;1260;60400;-55
2023/11/11 07:37:54;;;;;;;2.10;0.90;;;;;;;8.63;100.00;100399.42;105400;1258;74443;-52
2023/11/11 07:40:24;;;;;;;0.90;0.80;;;;;;;8.63;100.00;100391.19;108844;1254;65958;-55
2023/11/11 07:42:53;;;;;;;2.00;0.90;;;;;;;8.63;100.00;100390.84;108173;1257;72130;-53
2023/11/11 07:45:23;;;;;;;2.10;1.10;;;;;;;8.62;100.00;100381.02;108226;1259;60529;-54
2023/11/11 07:47:52;;;;;;;1.40;0.80;;;;;;;8.60;100.00;100378.56;106976;1257;60323;-52
2023/11/11 07:50:20;;;;;;;5.90;1.10;;;;;;;8.59;100.00;100375.38;105410;1261;75715;-52
2023/11/11 07:52:48;;;;;;;1.60;0.90;;;;;;;8.59;100.00;100373.41;107037;1254;66022;-54
2023/11/11 07:55:16;;;;;;;2.50;1.10;;;;;;;8.58;100.00;100366.14;105297;1257;71694;-51
2023/11/11 07:57:43;;;;;;;1.30;1.00;;;;;;;8.58;100.00;100361.66;105252;1260;62020;-51
2023/11/11 08:00:18;;;;;;;1.30;1.20;;;;;;;8.58;100.00;100360.23;105132;1254;60536;-55
2023/11/11 08:02:49;;;;;;;4.30;1.20;;;;;;;8.56;100.00;100364.21;108602;1254;72538;-52
2023/11/11 08:05:16;;;;;;;2.30;1.70;;;;;;;8.55;100.00;100361.58;105285;1259;68111;-55
2023/11/11 08:07:44;;;;;;;1.30;1.20;;;;;;;8.52;100.00;100355.40;105318;1258;72353;-52
2023/11/11 08:10:12;;;;;;;2.50;0.90;;;;;;;8.49;100.00;100349.23;107107;1254;61730;-53
2023/11/11 08:12:40;;;;;;;4.80;1.50;;;;;;;8.47;100.00;100346.25;105247;1254;60435;-54
2023/11/11 08:15:08;;;;;;;3.10;1.90;;;;;;;8.45;100.00;100344.34;105294;1259;72632;-54
2023/11/11 08:17:36;;;;;;;3.40;1.20;;;;;;;8.45;100.00;100333.80;108770;1254;67468;-53
2023/11/11 08:20:04;;;;;;;2.00;1.50;;;;;;;8.45;100.00;100329.32;108935;1254;72761;-53
2023/11/11 08:22:32;;;;;;;2.10;1.30;;;;;;;8.43;100.00;100326.30;105537;1254;60623;-51
2023/11/11 08:24:59;;;;;;;3.50;1.50;;;;;;;8.42;100.00;100322.42;105403;1259;60613;-52
2023/11/11 08:27:26;;;;;;;7.50;1.80;;;;;;;8.42;100.00;100318.52;106796;1260;72632;-52
2023/11/11 08:29:54;;;;;;;4.80;1.50;;;;;;;8.42;100.00;100312.24;105328;1254;65903;-54
2023/11/11 08:32:21;;;;;;;1.70;1.50;;;;;;;8.41;100.00;100311.56;105430;1261;72057;-53
2023/11/11 08:34:49;;;;;;;2.30;2.10;;;;;;;8.41;100.00;100308.71;105345;1259;61742;-54
2023/11/11 08:37:16;;;;;;;2.90;1.80;;;;;;;8.42;100.00;100306.52;105302;1260;60384;-51
2023/11/11 08:39:44;;;;;;;2.30;2.10;;;;;;;8.43;100.00;100301.99;105235;1254;72910;-52
2023/11/11 08:42:14;;;;;;;2.80;2.00;;;;;;;8.44;100.00;100300.54;105381;1255;65874;-55
2023/11/11 08:44:41;;;;;;;5.40;2.00;;;;;;;8.44;100.00;100293.76;104818;1257;73259;-52
2023/11/11 08:47:09;;;;;;;2.80;1.80;;;;;;;8.45;100.00;100289.41;104756;1260;60663;-53
2023/11/11 08:49:36;;;;;;;4.30;2.60;;;;;;;8.47;100.00;100286.33;105031;1253;61818;-53
2023/11/11 08:52:04;;;;;;;4.70;2.60;;;;;;;8.47;100.00;100281.48;105165;1254;73834;-53
2023/11/11 08:54:32;;;;;;;2.20;2.00;;;;;;;8.46;100.00;100273.14;105159;1254;66719;-54
2023/11/11 08:56:59;;;;;;;4.20;3.80;;;;;;;8.45;100.00;100265.83;104894;1254;73422;-54
2023/11/11 08:59:27;;;;;;;7.20;5.50;;;;;;;8.45;100.00;100257.06;108815;1257;60484;-52
2023/11/11 09:01:54;;;;;;;7.70;5.10;;;;;;;8.48;100.00;100248.20;107695;1257;60600;-53
2023/11/11 09:04:22;;;;;;;7.60;6.30;;;;;;;8.49;100.00;100250.15;105048;1267;74284;-53
2023/11/11 09:06:50;;;;;;;6.00;5.20;;;;;;;8.52;100.00;100242.34;105513;1257;65883;-54
2023/11/11 09:09:18;;;;;;;4.00;3.70;;;;;;;8.53;100.00;100230.52;106997;1255;72749;-53
2023/11/11 09:11:48;;;;;;;3.50;3.20;;;;;;;8.54;100.00;100228.33;107067;1254;60988;-54
2023/11/11 09:14:15;;;;;;;5.70;3.00;;;;;;;8.54;100.00;100224.39;105030;1256;60614;-54
2023/11/11 09:16:44;;;;;;;5.20;2.70;;;;;;;8.56;100.00;100213.79;105224;1254;73869;-52
2023/11/11 09:19:12;;;;;;;3.70;2.20;;;;;;;8.56;100.00;100208.23;105819;1258;65784;-53
2023/11/11 09:21:39;;;;;;;4.40;2.40;;;;;;;8.55;100.00;100204.69;105088;1260;74012;-54
2023/11/11 09:24:07;;;;;;;2.60;1.80;;;;;;;8.57;100.00;100195.69;105490;1259;61730;-51
2023/11/11 09:26:35;;;;;;;3.90;3.20;;;;;;;8.56;100.00;100190.86;105066;1261;60365;-54
2023/11/11 09:29:03;;;;;;;2.80;2.50;;;;;;;8.54;100.00;100185.75;108240;1254;73757;-51
2023/11/11 09:31:30;;;;;;;4.20;2.40;;;;;;;8.53;100.00;100176.30;105898;1256;65289;-52
2023/11/11 09:34:01;;;;;;;5.20;2.40;;;;;;;8.53;100.00;100166.82;105008;1260;72797;-54
2023/11/11 09:36:29;;;;;;;3.50;2.20;;;;;;;8.53;100.00;100163.23;105290;1258;61304;-52
2023/11/11 09:38:56;;;;;;;3.30;2.00;;;;;;;8.53;100.00;100150.02;105473;1259;60118;-53
2023/11/11 09:41:24;;;;;;;3.10;2.00;;;;;;;8.53;100.00;100147.67;105135;1260;74306;-52
2023/11/11 09:43:51;;;;;;;4.50;2.70;;;;;;;8.53;100.00;100136.05;105240;1259;67057;-53
2023/11/11 09:46:21;;;;;;;9.30;3.30;;;;;;;8.51;100.00;100127.72;108845;1254;72995;-51
2023/11/11 09:48:49;;;;;;;4.40;2.20;;;;;;;8.50;100.00;100127.58;108777;1253;61647;-52
2023/11/11 09:51:16;;;;;;;8.20;2.80;;;;;;;8.49;100.00;100117.23;108681;1257;58850;-55
2023/11/11 09:53:44;;;;;;;5.80;3.30;;;;;;;8.50;100.00;100107.36;108772;1253;73927;-54
2023/11/11 09:56:11;;;;;;;4.20;3.00;;;;;;;8.51;100.00;100100.70;108774;1257;64717;-54
2023/11/11 09:59:01;;;;;;;6.60;3.40;;;;;;;8.51;100.00;100108.74;108746;1254;74288;-54
2023/11/11 10:01:29;;;;;;;4.80;3.20;;;;;;;8.52;100.00;100096.55;108920;1253;60568;-54
2023/11/11 10:03:56;;;;;;;4.70;2.90;;;;;;;8.53;100.00;100084.20;108776;1253;59670;-53
2023/11/11 10:06:24;;;;;;;4.50;3.60;;;;;;;8.54;100.00;100077.89;108803;1254;74618;-56
2023/11/11 10:08:52;;;;;;;4.80;3.20;;;;;;;8.56;100.00;100072.81;109023;1254;66239;-54
2023/11/11 10:11:19;;;;;;;6.50;2.40;;;;;;;8.58;100.00;100064.90;108968;1254;73393;-55
2023/11/11 10:13:47;;;;;;;3.30;2.90;;;;;;;8.58;100.00;100064.52;108919;1253;61138;-54
2023/11/11 10:16:17;;;;;;;4.70;2.70;;;;;;;8.58;100.00;100057.20;109025;1253;60027;-53
2023/11/11 10:18:45;;;;;;;3.40;3.00;;;;;;;8.59;100.00;100056.09;108914;1254;73211;-54
2023/11/11 10:21:14;;;;;;;3.70;3.30;;;;;;;8.60;100.00;100046.55;108728;1255;65936;-55
2023/11/11 10:23:42;;;;;;;3.40;3.00;;;;;;;8.61;100.00;100043.48;108995;1255;72546;-56
2023/11/11 10:26:10;;;;;;;3.10;2.80;;;;;;;8.60;100.00;100040.27;108853;1255;60389;-54
2023/11/11 10:28:37;;;;;;;4.80;3.20;;;;;;;8.60;100.00;100036.88;108955;1253;58842;-53
2023/11/11 10:31:06;;;;;;;6.40;2.60;;;;;;;8.60;100.00;100032.96;107111;1254;74362;-55
2023/11/11 10:33:47;;;;;;;4.30;3.10;;;;;;;8.61;100.00;100036.33;104861;1253;67439;-52
2023/11/11 10:36:14;;;;;;;3.40;3.10;;;;;;;8.60;100.00;100028.28;104715;1258;72542;-53
2023/11/11 10:38:42;;;;;;;3.40;2.20;;;;;;;8.60;100.00;100025.99;104919;1260;60851;-50
2023/11/11 10:41:12;;;;;;;3.40;3.00;;;;;;;8.59;100.00;100021.56;105348;1260;60713;-54
2023/11/11 10:43:40;;;;;;;3.50;3.20;;;;;;;8.58;100.00;100015.86;105378;1254;73599;-53
2023/11/11 10:46:07;;;;;;;5.30;3.20;;;;;;;8.58;100.00;100009.44;108380;1254;67186;-52
2023/11/11 10:48:35;;;;;;;3.50;3.20;;;;;;;8.58;100.00;100008.36;105239;1261;72775;-53
2023/11/11 10:51:06;;;;;;;3.50;2.90;;;;;;;8.56;100.00;100004.86;105170;1258;60483;-51
2023/11/11 10:53:34;;;;;;;2.80;2.50;;;;;;;8.53;100.00;99999.77;105249;1261;61483;-54
2023/11/11 10:56:03;;;;;;;3.30;3.10;;;;;;;8.51;100.00;99997.14;105305;1255;73941;-53
2023/11/11 10:58:31;;;;;;;3.10;2.80;;;;;;;8.49;100.00;99986.70;105162;1260;65661;-51
2023/11/11 11:00:59;;;;;;;2.90;2.70;;;;;;;8.47;100.00;99972.80;105263;1254;71172;-54
2023/11/11 11:03:27;;;;;;;3.30;3.10;;;;;;;8.46;100.00;99967.30;105269;1257;60466;-56
2023/11/11 11:05:57;;;;;;;3.90;3.60;;;;;;;8.45;100.00;99963.03;105164;1253;60412;-53
2023/11/11 11:08:41;;;;;;;3.40;2.80;;;;;;;8.45;100.00;99957.66;105276;1255;73974;-52
2023/11/11 11:11:18;;;;;;;4.30;3.90;;;;;;;8.43;100.00;99962.38;108878;1253;66021;-51
2023/11/11 11:13:46;;;;;;;4.20;3.20;;;;;;;8.41;100.00;99951.38;108918;1254;74899;-52
2023/11/11 11:16:17;;;;;;;2.40;2.20;;;;;;;8.42;100.00;99938.83;105406;1254;61641;-53
2023/11/11 11:18:57;;;;;;;5.10;3.00;;;;;;;8.43;100.00;99938.98;105159;1254;60547;-52
2023/11/11 11:21:28;;;;;;;3.80;3.50;;;;;;;8.43;100.00;99940.75;105292;1260;74228;-54
2023/11/11 11:23:56;;;;;;;3.00;2.80;;;;;;;8.43;100.00;99927.52;105243;1253;66927;-52